Hauptseite
METAR-TAF:

METAR-TAF

Flughäfen :

Fairbanks International Airport

Fairbanks, Alaska, Vereinigte Staaten

Breite: 64-48-14N, Länge: 147-52-34W, Höhe: 132 m

Beobachtung

Neuester Wetterbericht von vor 1 Stunde und 4 Minuten, um 17:53 UTC
Windstille
Temperatur -35°C
Luftfeuchtigkeit 1,984%
Luftdruck 1018 hPa
Sichtweite: 16.1 km
Leicht bewölkt in der Höhe von 1000 ft
Aufgelockert bewölkt in der Höhe von 6500 ft

METAR: PAFA 291753Z 00000KT 10SM FEW010 SCT065 M35/ A3006 RMK AO2 SLP202 T1350 11322 21367 51020

Zeit: 09:57 (18:57 UTC)

Prognose

Neuester Wetterbericht von vor 1 Stunde und 37 Minuten, um 17:20 UTC
Gültige Prognose vom 29 um 18 UTC bis 01 um 24 UTC
Wind kt aus Nord
Sichtweite: 10 km
Aufgelockert bewölkt in der Höhe von 7000 ft

TAF: PAFA 291720Z 2918/0124 00000KT P6SM SCT070

Wetterbeobachtungen und Prognosen von mehr als 4000 Flughäfen (METAR und TAF Bericht).

Die verfügbaren Stationen werden durch gelbe und rote Markierungen auf der Karte dargestellt.

Führen Sie die Maus auf sie, um den Namen der Station zu sehen.

Darauf klicken, um die Beobachtung von Wetterbeobachtungen und Prognosen zu sehen.

Um die Karte zu ändern : klicken Sie auf den grünen Tasten mit einem schwarzen Kreuz Zum Vergrößern, auf den grünen Button mit einem Gedankenstrich zu verkleinern, oder auf die grünen Pfeile für benachbarte Karten.


METAR-TAF: